B06 weather

Basin Harbor Airport
Vergennes, Vermont, United States

Public forecast

Using degrees Fahrenheit for public forecast. Weather courtesy of forecast.io.

METAR (pilot weather report)

Closest report is Burlington International Airport, 18.6 nm (34.4 km) NNE. Retrieved 2019/04/25 20:54 UTC (47 minutes ago):

KBTV 252054Z 06006KT 10SM FEW045 FEW250 14/02 A2990 RMK AO2 SLP126 T01390022 56016

TAF (pilot weather forecast)

Closest forecast is Burlington International Airport, 18.6 nm (34.4 km) NNE. Retrieved 2019/04/25 18:33 UTC (3 hours ago):

TAF KBTV 251731Z 2518/2618 VRB04KT P6SM SCT040 TEMPO 2518/2521 BKN040 FM260000 VRB03KT P6SM SKC FM261100 15005KT P6SM VCSH SCT035 BKN070 FM261400 16010G18KT P6SM -RA OVC022